sensor_id;sensor_type;location;lat;lon;timestamp;P1;durP1;ratioP1;P2;durP2;ratioP2
62582;SDS011;48641;51.676;5.808;2023-04-24T00:00:16;4.78;;;2.35;;
62582;SDS011;48641;51.676;5.808;2023-04-24T00:02:42;5.63;;;2.05;;
62582;SDS011;48641;51.676;5.808;2023-04-24T00:05:12;4.38;;;2.10;;
62582;SDS011;48641;51.676;5.808;2023-04-24T00:07:39;4.00;;;1.80;;
62582;SDS011;48641;51.676;5.808;2023-04-24T00:10:05;4.10;;;1.90;;
62582;SDS011;48641;51.676;5.808;2023-04-24T00:12:32;5.60;;;2.50;;
62582;SDS011;48641;51.676;5.808;2023-04-24T00:14:57;3.80;;;2.00;;
62582;SDS011;48641;51.676;5.808;2023-04-24T00:17:23;4.32;;;2.03;;
62582;SDS011;48641;51.676;5.808;2023-04-24T00:19:49;4.25;;;1.98;;
62582;SDS011;48641;51.676;5.808;2023-04-24T00:22:23;4.15;;;2.00;;
62582;SDS011;48641;51.676;5.808;2023-04-24T00:24:49;4.28;;;1.90;;
62582;SDS011;48641;51.676;5.808;2023-04-24T00:27:15;4.22;;;1.85;;
62582;SDS011;48641;51.676;5.808;2023-04-24T00:29:40;4.18;;;1.98;;
62582;SDS011;48641;51.676;5.808;2023-04-24T00:32:06;4.07;;;1.90;;
62582;SDS011;48641;51.676;5.808;2023-04-24T00:34:31;4.28;;;2.00;;
62582;SDS011;48641;51.676;5.808;2023-04-24T00:36:57;4.28;;;1.88;;
62582;SDS011;48641;51.676;5.808;2023-04-24T00:39:23;5.00;;;2.00;;
62582;SDS011;48641;51.676;5.808;2023-04-24T00:41:48;4.28;;;1.83;;
62582;SDS011;48641;51.676;5.808;2023-04-24T00:44:15;4.65;;;1.95;;
62582;SDS011;48641;51.676;5.808;2023-04-24T00:46:42;4.20;;;2.13;;
62582;SDS011;48641;51.676;5.808;2023-04-24T00:49:07;4.07;;;1.90;;
62582;SDS011;48641;51.676;5.808;2023-04-24T00:51:33;5.00;;;2.05;;
62582;SDS011;48641;51.676;5.808;2023-04-24T00:53:59;4.50;;;2.20;;
62582;SDS011;48641;51.676;5.808;2023-04-24T00:56:25;4.53;;;2.20;;
62582;SDS011;48641;51.676;5.808;2023-04-24T00:58:51;5.25;;;2.42;;
62582;SDS011;48641;51.676;5.808;2023-04-24T01:01:18;4.40;;;2.03;;
62582;SDS011;48641;51.676;5.808;2023-04-24T01:03:46;3.55;;;1.65;;
62582;SDS011;48641;51.676;5.808;2023-04-24T01:06:12;4.60;;;2.20;;
62582;SDS011;48641;51.676;5.808;2023-04-24T01:08:39;5.45;;;2.33;;
62582;SDS011;48641;51.676;5.808;2023-04-24T01:11:06;4.75;;;2.17;;
62582;SDS011;48641;51.676;5.808;2023-04-24T01:13:32;5.22;;;2.03;;
62582;SDS011;48641;51.676;5.808;2023-04-24T01:15:58;5.25;;;2.17;;
62582;SDS011;48641;51.676;5.808;2023-04-24T01:18:24;5.25;;;2.50;;
62582;SDS011;48641;51.676;5.808;2023-04-24T01:20:51;5.50;;;2.20;;
62582;SDS011;48641;51.676;5.808;2023-04-24T01:23:19;6.15;;;2.58;;
62582;SDS011;48641;51.676;5.808;2023-04-24T01:25:45;5.68;;;2.58;;
62582;SDS011;48641;51.676;5.808;2023-04-24T01:28:11;5.53;;;2.60;;
62582;SDS011;48641;51.676;5.808;2023-04-24T01:30:39;5.05;;;2.40;;
62582;SDS011;48641;51.676;5.808;2023-04-24T01:33:04;6.25;;;2.45;;
62582;SDS011;48641;51.676;5.808;2023-04-24T01:35:30;6.95;;;2.40;;
62582;SDS011;48641;51.676;5.808;2023-04-24T01:37:56;5.35;;;2.35;;
62582;SDS011;48641;51.676;5.808;2023-04-24T01:40:22;5.18;;;2.40;;
62582;SDS011;48641;51.676;5.808;2023-04-24T01:42:48;5.38;;;2.50;;
62582;SDS011;48641;51.676;5.808;2023-04-24T01:45:13;6.55;;;2.60;;
62582;SDS011;48641;51.676;5.808;2023-04-24T01:47:39;5.68;;;2.92;;
62582;SDS011;48641;51.676;5.808;2023-04-24T01:50:05;5.78;;;2.60;;
62582;SDS011;48641;51.676;5.808;2023-04-24T01:52:31;6.47;;;2.70;;
62582;SDS011;48641;51.676;5.808;2023-04-24T01:55:01;5.50;;;2.70;;
62582;SDS011;48641;51.676;5.808;2023-04-24T01:57:31;6.82;;;3.05;;
62582;SDS011;48641;51.676;5.808;2023-04-24T01:59:56;5.70;;;2.67;;
62582;SDS011;48641;51.676;5.808;2023-04-24T02:02:22;7.75;;;3.13;;
62582;SDS011;48641;51.676;5.808;2023-04-24T02:04:55;5.97;;;2.83;;
62582;SDS011;48641;51.676;5.808;2023-04-24T02:07:21;6.78;;;2.97;;
62582;SDS011;48641;51.676;5.808;2023-04-24T02:09:47;7.43;;;2.65;;
62582;SDS011;48641;51.676;5.808;2023-04-24T02:12:12;5.97;;;2.78;;
62582;SDS011;48641;51.676;5.808;2023-04-24T02:14:38;6.13;;;2.92;;
62582;SDS011;48641;51.676;5.808;2023-04-24T02:17:04;7.03;;;2.80;;
62582;SDS011;48641;51.676;5.808;2023-04-24T02:19:30;5.80;;;3.08;;
62582;SDS011;48641;51.676;5.808;2023-04-24T02:21:56;5.95;;;2.78;;
62582;SDS011;48641;51.676;5.808;2023-04-24T02:24:21;6.03;;;2.88;;
62582;SDS011;48641;51.676;5.808;2023-04-24T02:26:47;5.47;;;2.63;;
62582;SDS011;48641;51.676;5.808;2023-04-24T02:29:12;5.35;;;2.72;;
62582;SDS011;48641;51.676;5.808;2023-04-24T02:31:38;6.80;;;2.90;;
62582;SDS011;48641;51.676;5.808;2023-04-24T02:34:03;5.50;;;2.78;;
62582;SDS011;48641;51.676;5.808;2023-04-24T02:36:29;6.60;;;3.47;;
62582;SDS011;48641;51.676;5.808;2023-04-24T02:38:55;6.82;;;3.50;;
62582;SDS011;48641;51.676;5.808;2023-04-24T02:41:20;7.35;;;3.35;;
62582;SDS011;48641;51.676;5.808;2023-04-24T02:43:46;6.88;;;3.30;;
62582;SDS011;48641;51.676;5.808;2023-04-24T02:46:12;6.97;;;3.28;;
62582;SDS011;48641;51.676;5.808;2023-04-24T02:48:37;8.02;;;3.72;;
62582;SDS011;48641;51.676;5.808;2023-04-24T02:51:03;6.75;;;3.40;;
62582;SDS011;48641;51.676;5.808;2023-04-24T02:53:29;7.40;;;3.30;;
62582;SDS011;48641;51.676;5.808;2023-04-24T02:55:55;6.75;;;3.55;;
62582;SDS011;48641;51.676;5.808;2023-04-24T02:58:21;7.43;;;3.88;;
62582;SDS011;48641;51.676;5.808;2023-04-24T03:00:47;7.15;;;3.22;;
62582;SDS011;48641;51.676;5.808;2023-04-24T03:03:13;7.07;;;3.40;;
62582;SDS011;48641;51.676;5.808;2023-04-24T03:05:40;6.57;;;3.50;;
62582;SDS011;48641;51.676;5.808;2023-04-24T03:08:05;7.97;;;4.00;;
62582;SDS011;48641;51.676;5.808;2023-04-24T03:10:31;7.28;;;3.58;;
62582;SDS011;48641;51.676;5.808;2023-04-24T03:12:57;7.40;;;3.40;;
62582;SDS011;48641;51.676;5.808;2023-04-24T03:15:22;7.63;;;3.72;;
62582;SDS011;48641;51.676;5.808;2023-04-24T03:17:48;8.20;;;3.65;;
62582;SDS011;48641;51.676;5.808;2023-04-24T03:20:14;7.72;;;3.78;;
62582;SDS011;48641;51.676;5.808;2023-04-24T03:22:40;7.50;;;3.85;;
62582;SDS011;48641;51.676;5.808;2023-04-24T03:25:06;6.85;;;3.38;;
62582;SDS011;48641;51.676;5.808;2023-04-24T03:27:34;7.85;;;3.78;;
62582;SDS011;48641;51.676;5.808;2023-04-24T03:29:59;7.50;;;3.97;;
62582;SDS011;48641;51.676;5.808;2023-04-24T03:32:25;7.30;;;3.80;;
62582;SDS011;48641;51.676;5.808;2023-04-24T03:34:51;7.82;;;3.78;;
62582;SDS011;48641;51.676;5.808;2023-04-24T03:37:17;7.85;;;3.90;;
62582;SDS011;48641;51.676;5.808;2023-04-24T03:39:42;6.93;;;3.67;;
62582;SDS011;48641;51.676;5.808;2023-04-24T03:42:08;7.55;;;3.55;;
62582;SDS011;48641;51.676;5.808;2023-04-24T03:44:34;7.60;;;4.05;;
62582;SDS011;48641;51.676;5.808;2023-04-24T03:47:00;7.57;;;4.10;;
62582;SDS011;48641;51.676;5.808;2023-04-24T03:49:26;7.05;;;4.18;;
62582;SDS011;48641;51.676;5.808;2023-04-24T03:51:51;7.90;;;3.67;;
62582;SDS011;48641;51.676;5.808;2023-04-24T03:54:17;7.65;;;4.20;;
62582;SDS011;48641;51.676;5.808;2023-04-24T03:56:43;7.20;;;3.97;;
62582;SDS011;48641;51.676;5.808;2023-04-24T03:59:09;7.00;;;3.90;;
62582;SDS011;48641;51.676;5.808;2023-04-24T04:01:35;7.10;;;4.00;;
62582;SDS011;48641;51.676;5.808;2023-04-24T04:04:02;6.90;;;3.92;;
62582;SDS011;48641;51.676;5.808;2023-04-24T04:06:28;7.53;;;3.95;;
62582;SDS011;48641;51.676;5.808;2023-04-24T04:08:55;7.25;;;3.92;;
62582;SDS011;48641;51.676;5.808;2023-04-24T04:11:21;7.95;;;4.07;;
62582;SDS011;48641;51.676;5.808;2023-04-24T04:13:47;7.95;;;4.38;;
62582;SDS011;48641;51.676;5.808;2023-04-24T04:16:13;7.80;;;3.78;;
62582;SDS011;48641;51.676;5.808;2023-04-24T04:18:39;8.80;;;4.25;;
62582;SDS011;48641;51.676;5.808;2023-04-24T04:21:04;7.35;;;3.88;;
62582;SDS011;48641;51.676;5.808;2023-04-24T04:23:30;7.50;;;3.53;;
62582;SDS011;48641;51.676;5.808;2023-04-24T04:25:56;8.35;;;4.22;;
62582;SDS011;48641;51.676;5.808;2023-04-24T04:28:22;7.00;;;3.78;;
62582;SDS011;48641;51.676;5.808;2023-04-24T04:30:49;6.72;;;3.70;;
62582;SDS011;48641;51.676;5.808;2023-04-24T04:33:18;7.25;;;3.80;;
62582;SDS011;48641;51.676;5.808;2023-04-24T04:35:45;7.88;;;3.95;;
62582;SDS011;48641;51.676;5.808;2023-04-24T04:38:13;7.05;;;3.47;;
62582;SDS011;48641;51.676;5.808;2023-04-24T04:40:39;8.50;;;4.00;;
62582;SDS011;48641;51.676;5.808;2023-04-24T04:43:05;8.48;;;3.60;;
62582;SDS011;48641;51.676;5.808;2023-04-24T04:45:31;6.68;;;3.67;;
62582;SDS011;48641;51.676;5.808;2023-04-24T04:47:57;7.88;;;4.00;;
62582;SDS011;48641;51.676;5.808;2023-04-24T04:50:25;8.65;;;3.83;;
62582;SDS011;48641;51.676;5.808;2023-04-24T04:52:52;8.35;;;3.88;;
62582;SDS011;48641;51.676;5.808;2023-04-24T04:55:17;7.43;;;3.75;;
62582;SDS011;48641;51.676;5.808;2023-04-24T04:57:44;7.65;;;3.67;;
62582;SDS011;48641;51.676;5.808;2023-04-24T05:00:10;7.00;;;3.58;;
62582;SDS011;48641;51.676;5.808;2023-04-24T05:02:37;7.22;;;3.88;;
62582;SDS011;48641;51.676;5.808;2023-04-24T05:05:03;7.25;;;3.63;;
62582;SDS011;48641;51.676;5.808;2023-04-24T05:07:30;7.35;;;4.13;;
62582;SDS011;48641;51.676;5.808;2023-04-24T05:09:56;7.30;;;3.92;;
62582;SDS011;48641;51.676;5.808;2023-04-24T05:12:21;6.53;;;3.25;;
62582;SDS011;48641;51.676;5.808;2023-04-24T05:14:47;7.68;;;3.58;;
62582;SDS011;48641;51.676;5.808;2023-04-24T05:17:13;7.10;;;3.72;;
62582;SDS011;48641;51.676;5.808;2023-04-24T05:19:38;7.15;;;3.45;;
62582;SDS011;48641;51.676;5.808;2023-04-24T05:22:04;6.80;;;3.60;;
62582;SDS011;48641;51.676;5.808;2023-04-24T05:24:32;6.90;;;3.70;;
62582;SDS011;48641;51.676;5.808;2023-04-24T05:26:58;6.57;;;3.35;;
62582;SDS011;48641;51.676;5.808;2023-04-24T05:29:24;6.72;;;3.33;;
62582;SDS011;48641;51.676;5.808;2023-04-24T05:31:51;7.40;;;3.40;;
62582;SDS011;48641;51.676;5.808;2023-04-24T05:34:17;6.72;;;3.55;;
62582;SDS011;48641;51.676;5.808;2023-04-24T05:36:43;6.85;;;3.55;;
62582;SDS011;48641;51.676;5.808;2023-04-24T05:39:08;6.45;;;3.25;;
62582;SDS011;48641;51.676;5.808;2023-04-24T05:41:34;5.72;;;3.17;;
62582;SDS011;48641;51.676;5.808;2023-04-24T05:44:00;7.15;;;3.65;;
62582;SDS011;48641;51.676;5.808;2023-04-24T05:46:25;6.10;;;3.10;;
62582;SDS011;48641;51.676;5.808;2023-04-24T05:48:51;6.80;;;3.33;;
62582;SDS011;48641;51.676;5.808;2023-04-24T05:51:16;7.25;;;3.63;;
62582;SDS011;48641;51.676;5.808;2023-04-24T05:53:42;7.18;;;3.30;;
62582;SDS011;48641;51.676;5.808;2023-04-24T05:56:08;7.20;;;3.47;;
62582;SDS011;48641;51.676;5.808;2023-04-24T05:58:33;6.57;;;3.38;;
62582;SDS011;48641;51.676;5.808;2023-04-24T06:00:59;6.28;;;3.17;;
62582;SDS011;48641;51.676;5.808;2023-04-24T06:03:26;7.13;;;3.28;;
62582;SDS011;48641;51.676;5.808;2023-04-24T06:05:52;6.70;;;3.17;;
62582;SDS011;48641;51.676;5.808;2023-04-24T06:08:18;7.40;;;3.35;;
62582;SDS011;48641;51.676;5.808;2023-04-24T06:10:44;9.38;;;3.28;;
62582;SDS011;48641;51.676;5.808;2023-04-24T06:13:10;6.65;;;3.25;;
62582;SDS011;48641;51.676;5.808;2023-04-24T06:15:36;8.07;;;3.45;;
62582;SDS011;48641;51.676;5.808;2023-04-24T06:18:02;6.95;;;3.55;;
62582;SDS011;48641;51.676;5.808;2023-04-24T06:20:28;6.93;;;3.22;;
62582;SDS011;48641;51.676;5.808;2023-04-24T06:22:53;6.53;;;3.28;;
62582;SDS011;48641;51.676;5.808;2023-04-24T06:25:19;6.80;;;3.15;;
62582;SDS011;48641;51.676;5.808;2023-04-24T06:27:45;6.70;;;3.15;;
62582;SDS011;48641;51.676;5.808;2023-04-24T06:30:11;5.82;;;2.92;;
62582;SDS011;48641;51.676;5.808;2023-04-24T06:32:37;6.45;;;3.42;;
62582;SDS011;48641;51.676;5.808;2023-04-24T06:35:02;5.93;;;2.88;;
62582;SDS011;48641;51.676;5.808;2023-04-24T06:37:29;6.60;;;3.03;;
62582;SDS011;48641;51.676;5.808;2023-04-24T06:39:55;6.20;;;3.08;;
62582;SDS011;48641;51.676;5.808;2023-04-24T06:42:20;6.03;;;3.33;;
62582;SDS011;48641;51.676;5.808;2023-04-24T06:44:47;7.57;;;2.85;;
62582;SDS011;48641;51.676;5.808;2023-04-24T06:47:12;5.68;;;3.08;;
62582;SDS011;48641;51.676;5.808;2023-04-24T06:49:41;6.53;;;2.72;;
62582;SDS011;48641;51.676;5.808;2023-04-24T06:52:07;5.68;;;2.88;;
62582;SDS011;48641;51.676;5.808;2023-04-24T06:54:33;8.40;;;3.13;;
62582;SDS011;48641;51.676;5.808;2023-04-24T06:57:00;6.80;;;3.30;;
62582;SDS011;48641;51.676;5.808;2023-04-24T06:59:27;6.00;;;2.87;;
62582;SDS011;48641;51.676;5.808;2023-04-24T07:01:53;5.90;;;2.60;;
62582;SDS011;48641;51.676;5.808;2023-04-24T07:04:19;5.78;;;3.00;;
62582;SDS011;48641;51.676;5.808;2023-04-24T07:06:45;5.57;;;2.90;;
62582;SDS011;48641;51.676;5.808;2023-04-24T07:09:11;5.68;;;2.78;;
62582;SDS011;48641;51.676;5.808;2023-04-24T07:11:38;5.63;;;2.63;;
62582;SDS011;48641;51.676;5.808;2023-04-24T07:14:05;4.97;;;2.63;;
62582;SDS011;48641;51.676;5.808;2023-04-24T07:16:31;5.38;;;2.47;;
62582;SDS011;48641;51.676;5.808;2023-04-24T07:18:57;5.18;;;2.53;;
62582;SDS011;48641;51.676;5.808;2023-04-24T07:21:22;5.47;;;2.65;;
62582;SDS011;48641;51.676;5.808;2023-04-24T07:23:48;5.70;;;2.65;;
62582;SDS011;48641;51.676;5.808;2023-04-24T07:26:14;5.60;;;3.05;;
62582;SDS011;48641;51.676;5.808;2023-04-24T07:28:40;6.05;;;2.65;;
62582;SDS011;48641;51.676;5.808;2023-04-24T07:31:06;5.40;;;2.55;;
62582;SDS011;48641;51.676;5.808;2023-04-24T07:33:31;5.45;;;2.67;;
62582;SDS011;48641;51.676;5.808;2023-04-24T07:35:57;4.88;;;2.35;;
62582;SDS011;48641;51.676;5.808;2023-04-24T07:38:24;5.32;;;2.47;;
62582;SDS011;48641;51.676;5.808;2023-04-24T07:40:50;5.43;;;2.38;;
62582;SDS011;48641;51.676;5.808;2023-04-24T07:43:16;6.22;;;2.72;;
62582;SDS011;48641;51.676;5.808;2023-04-24T07:45:42;5.70;;;2.55;;
62582;SDS011;48641;51.676;5.808;2023-04-24T07:48:08;5.78;;;2.40;;
62582;SDS011;48641;51.676;5.808;2023-04-24T07:50:35;4.97;;;2.28;;
62582;SDS011;48641;51.676;5.808;2023-04-24T07:53:01;5.38;;;2.63;;
62582;SDS011;48641;51.676;5.808;2023-04-24T07:55:27;6.00;;;2.83;;
62582;SDS011;48641;51.676;5.808;2023-04-24T07:57:52;5.70;;;2.90;;
62582;SDS011;48641;51.676;5.808;2023-04-24T08:00:18;6.13;;;2.88;;
62582;SDS011;48641;51.676;5.808;2023-04-24T08:02:44;5.72;;;2.70;;
62582;SDS011;48641;51.676;5.808;2023-04-24T08:05:10;6.25;;;2.70;;
62582;SDS011;48641;51.676;5.808;2023-04-24T08:07:36;5.55;;;2.80;;
62582;SDS011;48641;51.676;5.808;2023-04-24T08:10:01;5.68;;;2.83;;
62582;SDS011;48641;51.676;5.808;2023-04-24T08:12:30;6.43;;;2.85;;
62582;SDS011;48641;51.676;5.808;2023-04-24T08:14:56;6.57;;;3.42;;
62582;SDS011;48641;51.676;5.808;2023-04-24T08:17:21;6.32;;;2.67;;
62582;SDS011;48641;51.676;5.808;2023-04-24T08:19:49;6.32;;;3.08;;
62582;SDS011;48641;51.676;5.808;2023-04-24T08:22:16;5.53;;;2.70;;
62582;SDS011;48641;51.676;5.808;2023-04-24T08:24:42;5.90;;;3.13;;
62582;SDS011;48641;51.676;5.808;2023-04-24T08:27:08;5.82;;;2.78;;
62582;SDS011;48641;51.676;5.808;2023-04-24T08:29:34;5.68;;;2.70;;
62582;SDS011;48641;51.676;5.808;2023-04-24T08:32:00;5.65;;;2.58;;
62582;SDS011;48641;51.676;5.808;2023-04-24T08:34:25;7.05;;;2.90;;
62582;SDS011;48641;51.676;5.808;2023-04-24T08:36:51;7.32;;;3.40;;
62582;SDS011;48641;51.676;5.808;2023-04-24T08:39:19;6.03;;;2.85;;
62582;SDS011;48641;51.676;5.808;2023-04-24T08:41:45;6.45;;;3.08;;
62582;SDS011;48641;51.676;5.808;2023-04-24T08:44:13;5.53;;;2.73;;
62582;SDS011;48641;51.676;5.808;2023-04-24T08:46:41;6.32;;;2.83;;
62582;SDS011;48641;51.676;5.808;2023-04-24T08:49:08;7.05;;;2.95;;
62582;SDS011;48641;51.676;5.808;2023-04-24T08:51:33;5.65;;;2.78;;
62582;SDS011;48641;51.676;5.808;2023-04-24T08:54:01;6.28;;;3.05;;
62582;SDS011;48641;51.676;5.808;2023-04-24T08:56:28;7.53;;;3.22;;
62582;SDS011;48641;51.676;5.808;2023-04-24T08:58:56;6.70;;;2.67;;
62582;SDS011;48641;51.676;5.808;2023-04-24T09:01:22;5.93;;;2.55;;
62582;SDS011;48641;51.676;5.808;2023-04-24T09:03:50;7.93;;;3.13;;
62582;SDS011;48641;51.676;5.808;2023-04-24T09:06:17;6.10;;;2.90;;
62582;SDS011;48641;51.676;5.808;2023-04-24T09:08:44;5.97;;;2.90;;
62582;SDS011;48641;51.676;5.808;2023-04-24T09:11:11;5.63;;;2.88;;
62582;SDS011;48641;51.676;5.808;2023-04-24T09:13:37;7.03;;;3.20;;
62582;SDS011;48641;51.676;5.808;2023-04-24T09:16:03;6.00;;;2.70;;
62582;SDS011;48641;51.676;5.808;2023-04-24T09:18:28;7.05;;;2.65;;
62582;SDS011;48641;51.676;5.808;2023-04-24T09:20:58;5.60;;;2.58;;
62582;SDS011;48641;51.676;5.808;2023-04-24T09:23:25;6.70;;;3.05;;
62582;SDS011;48641;51.676;5.808;2023-04-24T09:25:55;7.30;;;2.83;;
62582;SDS011;48641;51.676;5.808;2023-04-24T09:28:40;6.40;;;2.80;;
62582;SDS011;48641;51.676;5.808;2023-04-24T09:31:11;7.35;;;3.10;;
62582;SDS011;48641;51.676;5.808;2023-04-24T09:33:39;7.15;;;2.65;;
62582;SDS011;48641;51.676;5.808;2023-04-24T09:36:05;6.90;;;2.90;;
62582;SDS011;48641;51.676;5.808;2023-04-24T09:38:37;5.93;;;2.65;;
62582;SDS011;48641;51.676;5.808;2023-04-24T09:41:07;5.50;;;2.55;;
62582;SDS011;48641;51.676;5.808;2023-04-24T09:43:37;6.30;;;2.72;;
62582;SDS011;48641;51.676;5.808;2023-04-24T09:46:06;6.80;;;2.78;;
62582;SDS011;48641;51.676;5.808;2023-04-24T09:48:35;6.95;;;3.03;;
62582;SDS011;48641;51.676;5.808;2023-04-24T09:51:02;6.25;;;2.97;;
62582;SDS011;48641;51.676;5.808;2023-04-24T09:53:29;4.95;;;2.50;;
62582;SDS011;48641;51.676;5.808;2023-04-24T09:55:56;6.60;;;2.72;;
62582;SDS011;48641;51.676;5.808;2023-04-24T09:58:28;6.90;;;2.88;;
62582;SDS011;48641;51.676;5.808;2023-04-24T10:00:54;6.55;;;2.78;;
62582;SDS011;48641;51.676;5.808;2023-04-24T10:03:23;5.55;;;2.67;;
62582;SDS011;48641;51.676;5.808;2023-04-24T10:05:51;6.25;;;2.65;;
62582;SDS011;48641;51.676;5.808;2023-04-24T10:08:17;5.50;;;2.53;;
62582;SDS011;48641;51.676;5.808;2023-04-24T10:10:43;6.43;;;2.50;;
62582;SDS011;48641;51.676;5.808;2023-04-24T10:13:11;7.30;;;2.60;;
62582;SDS011;48641;51.676;5.808;2023-04-24T10:15:38;5.35;;;2.30;;
62582;SDS011;48641;51.676;5.808;2023-04-24T10:18:05;6.72;;;2.70;;
62582;SDS011;48641;51.676;5.808;2023-04-24T10:20:31;5.18;;;2.33;;
62582;SDS011;48641;51.676;5.808;2023-04-24T10:22:58;5.75;;;2.72;;
62582;SDS011;48641;51.676;5.808;2023-04-24T10:25:31;7.70;;;3.08;;
62582;SDS011;48641;51.676;5.808;2023-04-24T10:28:00;5.53;;;2.25;;
62582;SDS011;48641;51.676;5.808;2023-04-24T10:30:27;7.68;;;2.80;;
62582;SDS011;48641;51.676;5.808;2023-04-24T10:32:55;5.97;;;2.67;;
62582;SDS011;48641;51.676;5.808;2023-04-24T10:35:21;5.95;;;2.80;;
62582;SDS011;48641;51.676;5.808;2023-04-24T10:37:50;5.70;;;2.80;;
62582;SDS011;48641;51.676;5.808;2023-04-24T10:40:27;6.35;;;2.50;;
62582;SDS011;48641;51.676;5.808;2023-04-24T10:42:59;5.28;;;2.60;;
62582;SDS011;48641;51.676;5.808;2023-04-24T10:45:26;6.90;;;2.38;;
62582;SDS011;48641;51.676;5.808;2023-04-24T10:48:02;4.90;;;2.20;;
62582;SDS011;48641;51.676;5.808;2023-04-24T10:51:14;6.10;;;2.17;;
62582;SDS011;48641;51.676;5.808;2023-04-24T10:53:18;6.88;;;2.47;;
62582;SDS011;48641;51.676;5.808;2023-04-24T10:55:52;6.88;;;2.78;;
62582;SDS011;48641;51.676;5.808;2023-04-24T10:58:43;5.40;;;2.60;;
62582;SDS011;48641;51.676;5.808;2023-04-24T11:01:27;6.38;;;2.53;;
62582;SDS011;48641;51.676;5.808;2023-04-24T11:03:55;6.18;;;2.42;;
62582;SDS011;48641;51.676;5.808;2023-04-24T11:06:28;5.88;;;2.50;;
62582;SDS011;48641;51.676;5.808;2023-04-24T11:08:59;5.72;;;2.20;;
62582;SDS011;48641;51.676;5.808;2023-04-24T11:11:35;5.32;;;2.30;;
62582;SDS011;48641;51.676;5.808;2023-04-24T11:14:03;8.07;;;2.73;;
62582;SDS011;48641;51.676;5.808;2023-04-24T11:16:32;5.22;;;2.13;;
62582;SDS011;48641;51.676;5.808;2023-04-24T11:19:04;5.90;;;2.30;;
62582;SDS011;48641;51.676;5.808;2023-04-24T11:21:38;5.78;;;2.15;;
62582;SDS011;48641;51.676;5.808;2023-04-24T11:26:53;4.32;;;1.70;;
62582;SDS011;48641;51.676;5.808;2023-04-24T11:29:20;8.30;;;2.50;;
62582;SDS011;48641;51.676;5.808;2023-04-24T11:31:46;5.80;;;2.47;;
62582;SDS011;48641;51.676;5.808;2023-04-24T11:34:16;5.75;;;2.55;;
62582;SDS011;48641;51.676;5.808;2023-04-24T11:36:43;4.55;;;2.17;;
62582;SDS011;48641;51.676;5.808;2023-04-24T11:39:10;5.97;;;2.40;;
62582;SDS011;48641;51.676;5.808;2023-04-24T11:41:36;6.18;;;2.22;;
62582;SDS011;48641;51.676;5.808;2023-04-24T11:44:03;5.03;;;2.28;;
62582;SDS011;48641;51.676;5.808;2023-04-24T11:46:31;5.97;;;2.22;;
62582;SDS011;48641;51.676;5.808;2023-04-24T11:48:57;6.18;;;2.47;;
62582;SDS011;48641;51.676;5.808;2023-04-24T11:51:23;5.68;;;2.40;;
62582;SDS011;48641;51.676;5.808;2023-04-24T11:53:55;4.95;;;2.13;;
62582;SDS011;48641;51.676;5.808;2023-04-24T11:56:22;6.07;;;2.70;;
62582;SDS011;48641;51.676;5.808;2023-04-24T11:58:48;5.72;;;2.10;;
62582;SDS011;48641;51.676;5.808;2023-04-24T12:01:18;5.55;;;2.15;;
62582;SDS011;48641;51.676;5.808;2023-04-24T12:03:47;4.63;;;1.90;;
62582;SDS011;48641;51.676;5.808;2023-04-24T12:06:15;5.60;;;2.22;;
62582;SDS011;48641;51.676;5.808;2023-04-24T12:08:41;5.15;;;2.05;;
62582;SDS011;48641;51.676;5.808;2023-04-24T12:11:10;4.63;;;1.80;;
62582;SDS011;48641;51.676;5.808;2023-04-24T12:13:36;4.90;;;1.95;;
62582;SDS011;48641;51.676;5.808;2023-04-24T12:16:03;4.53;;;1.90;;
62582;SDS011;48641;51.676;5.808;2023-04-24T12:18:29;5.25;;;1.98;;
62582;SDS011;48641;51.676;5.808;2023-04-24T12:20:55;5.85;;;2.22;;
62582;SDS011;48641;51.676;5.808;2023-04-24T12:23:42;4.80;;;2.00;;
62582;SDS011;48641;51.676;5.808;2023-04-24T12:26:09;5.07;;;2.10;;
62582;SDS011;48641;51.676;5.808;2023-04-24T12:28:35;5.15;;;2.00;;
62582;SDS011;48641;51.676;5.808;2023-04-24T12:31:02;5.07;;;1.90;;
62582;SDS011;48641;51.676;5.808;2023-04-24T12:33:28;3.63;;;1.63;;
62582;SDS011;48641;51.676;5.808;2023-04-24T12:35:58;4.85;;;1.83;;
62582;SDS011;48641;51.676;5.808;2023-04-24T12:38:27;5.47;;;2.10;;
62582;SDS011;48641;51.676;5.808;2023-04-24T12:41:06;4.25;;;1.98;;
62582;SDS011;48641;51.676;5.808;2023-04-24T12:43:35;6.13;;;2.10;;
62582;SDS011;48641;51.676;5.808;2023-04-24T12:46:01;6.03;;;2.15;;
62582;SDS011;48641;51.676;5.808;2023-04-24T12:48:27;5.18;;;2.20;;
62582;SDS011;48641;51.676;5.808;2023-04-24T12:50:53;5.28;;;2.00;;
62582;SDS011;48641;51.676;5.808;2023-04-24T12:53:20;4.95;;;1.75;;
62582;SDS011;48641;51.676;5.808;2023-04-24T12:55:45;4.45;;;1.90;;
62582;SDS011;48641;51.676;5.808;2023-04-24T12:58:17;4.40;;;2.20;;
62582;SDS011;48641;51.676;5.808;2023-04-24T13:00:43;4.82;;;1.90;;
62582;SDS011;48641;51.676;5.808;2023-04-24T13:03:10;4.90;;;1.92;;
62582;SDS011;48641;51.676;5.808;2023-04-24T13:05:36;5.45;;;2.08;;
62582;SDS011;48641;51.676;5.808;2023-04-24T13:08:02;4.57;;;1.73;;
62582;SDS011;48641;51.676;5.808;2023-04-24T13:10:27;5.85;;;1.90;;
62582;SDS011;48641;51.676;5.808;2023-04-24T13:12:53;4.10;;;1.70;;
62582;SDS011;48641;51.676;5.808;2023-04-24T13:15:19;4.50;;;1.60;;
62582;SDS011;48641;51.676;5.808;2023-04-24T13:17:45;5.43;;;2.08;;
62582;SDS011;48641;51.676;5.808;2023-04-24T13:20:10;4.90;;;1.70;;
62582;SDS011;48641;51.676;5.808;2023-04-24T13:22:36;5.80;;;1.92;;
62582;SDS011;48641;51.676;5.808;2023-04-24T13:25:02;4.88;;;1.83;;
62582;SDS011;48641;51.676;5.808;2023-04-24T13:27:28;5.68;;;2.08;;
62582;SDS011;48641;51.676;5.808;2023-04-24T13:29:54;5.00;;;1.70;;
62582;SDS011;48641;51.676;5.808;2023-04-24T13:32:19;4.28;;;1.70;;
62582;SDS011;48641;51.676;5.808;2023-04-24T13:34:45;4.07;;;1.83;;
62582;SDS011;48641;51.676;5.808;2023-04-24T13:37:10;4.53;;;1.70;;
62582;SDS011;48641;51.676;5.808;2023-04-24T13:39:36;4.85;;;1.60;;
62582;SDS011;48641;51.676;5.808;2023-04-24T13:42:02;5.57;;;1.40;;
62582;SDS011;48641;51.676;5.808;2023-04-24T13:44:27;4.70;;;1.60;;
62582;SDS011;48641;51.676;5.808;2023-04-24T13:46:54;3.67;;;1.55;;
62582;SDS011;48641;51.676;5.808;2023-04-24T13:49:22;4.87;;;1.93;;
62582;SDS011;48641;51.676;5.808;2023-04-24T13:51:50;3.53;;;1.33;;
62582;SDS011;48641;51.676;5.808;2023-04-24T13:54:15;4.70;;;1.80;;
62582;SDS011;48641;51.676;5.808;2023-04-24T13:56:41;4.78;;;1.73;;
62582;SDS011;48641;51.676;5.808;2023-04-24T13:59:07;3.63;;;1.60;;
62582;SDS011;48641;51.676;5.808;2023-04-24T14:01:33;5.05;;;1.73;;
62582;SDS011;48641;51.676;5.808;2023-04-24T14:03:59;3.88;;;1.50;;
62582;SDS011;48641;51.676;5.808;2023-04-24T14:06:25;3.55;;;1.30;;
62582;SDS011;48641;51.676;5.808;2023-04-24T14:08:51;4.97;;;1.60;;
62582;SDS011;48641;51.676;5.808;2023-04-24T14:11:17;4.95;;;1.73;;
62582;SDS011;48641;51.676;5.808;2023-04-24T14:13:44;5.18;;;1.75;;
62582;SDS011;48641;51.676;5.808;2023-04-24T14:16:10;3.40;;;1.58;;
62582;SDS011;48641;51.676;5.808;2023-04-24T14:18:36;4.13;;;1.70;;
62582;SDS011;48641;51.676;5.808;2023-04-24T14:21:02;4.25;;;1.60;;
62582;SDS011;48641;51.676;5.808;2023-04-24T14:23:28;5.10;;;1.70;;
62582;SDS011;48641;51.676;5.808;2023-04-24T14:25:54;4.00;;;1.60;;
62582;SDS011;48641;51.676;5.808;2023-04-24T14:28:20;5.63;;;1.77;;
62582;SDS011;48641;51.676;5.808;2023-04-24T14:30:46;6.30;;;1.77;;
62582;SDS011;48641;51.676;5.808;2023-04-24T14:33:13;5.10;;;1.70;;
62582;SDS011;48641;51.676;5.808;2023-04-24T14:35:39;4.32;;;1.55;;
62582;SDS011;48641;51.676;5.808;2023-04-24T14:38:07;3.97;;;1.60;;
62582;SDS011;48641;51.676;5.808;2023-04-24T14:40:32;4.85;;;1.77;;
62582;SDS011;48641;51.676;5.808;2023-04-24T14:42:58;3.60;;;1.60;;
62582;SDS011;48641;51.676;5.808;2023-04-24T14:45:24;4.63;;;1.80;;
62582;SDS011;48641;51.676;5.808;2023-04-24T14:47:50;3.72;;;1.30;;